createdAt,value
2022-09-14T00:02:11.126Z,98876.14
2022-09-14T00:07:13.586Z,98878.30
2022-09-14T00:12:16.218Z,98873.64
2022-09-14T00:17:18.803Z,98868.39
2022-09-14T00:22:21.206Z,98871.46
2022-09-14T00:27:23.634Z,98873.35
2022-09-14T00:32:26.141Z,98869.84
2022-09-14T00:37:28.617Z,98866.71
2022-09-14T00:42:31.212Z,98865.61
2022-09-14T00:47:34.416Z,98859.59
2022-09-14T00:52:38.243Z,98849.48
2022-09-14T00:57:43.609Z,98849.62
2022-09-14T01:02:46.121Z,98847.85
2022-09-14T01:08:48.204Z,98841.15
2022-09-14T01:13:53.605Z,98840.25
2022-09-14T01:18:58.641Z,98831.46
2022-09-14T01:24:08.380Z,98829.20
2022-09-14T01:29:13.426Z,98822.41
2022-09-14T01:34:20.061Z,98823.63
2022-09-14T01:39:23.013Z,98818.29
2022-09-14T01:44:27.505Z,98819.29
2022-09-14T01:49:32.117Z,98814.85
2022-09-14T01:54:37.755Z,98813.86
2022-09-14T01:59:43.451Z,98814.02
2022-09-14T02:04:49.285Z,98813.65
2022-09-14T02:09:52.909Z,98807.41
2022-09-14T02:14:55.440Z,98798.06
2022-09-14T02:20:00.636Z,98798.02
2022-09-14T02:25:03.430Z,98785.44
2022-09-14T02:30:06.293Z,98780.21
2022-09-14T02:35:10.688Z,98779.39
2022-09-14T02:40:13.168Z,98774.20
2022-09-14T02:45:15.992Z,98767.02
2022-09-14T02:50:23.625Z,98760.62
2022-09-14T02:55:29.371Z,98757.19
2022-09-14T03:00:33.816Z,98755.69
2022-09-14T03:05:36.477Z,98748.02
2022-09-14T03:10:41.477Z,98748.33
2022-09-14T03:15:43.958Z,98749.64
2022-09-14T03:20:46.447Z,98751.02
2022-09-14T03:25:48.836Z,98749.68
2022-09-14T03:30:51.275Z,98750.09
2022-09-14T03:35:53.719Z,98751.98
2022-09-14T03:40:57.991Z,98746.52
2022-09-14T03:46:05.234Z,98748.48
2022-09-14T03:51:09.011Z,98748.44
2022-09-14T03:56:15.360Z,98751.25
2022-09-14T04:01:19.365Z,98758.55
2022-09-14T04:06:22.132Z,98757.05
2022-09-14T04:11:25.350Z,98753.67
2022-09-14T04:16:28.309Z,98749.27
2022-09-14T04:21:30.881Z,98743.95
2022-09-14T04:26:34.028Z,98747.63
2022-09-14T04:31:36.988Z,98746.44
2022-09-14T04:37:31.068Z,98741.81
2022-09-14T04:42:33.532Z,98758.12
2022-09-14T04:47:35.932Z,98764.34
2022-09-14T04:52:38.421Z,98763.98
2022-09-14T04:57:40.840Z,98771.17
2022-09-14T05:02:43.360Z,98769.20
2022-09-14T05:07:46.106Z,98769.23
2022-09-14T05:12:48.592Z,98768.34
2022-09-14T05:17:51.013Z,98774.65
2022-09-14T05:22:53.421Z,98772.46
2022-09-14T05:27:55.868Z,98768.61
2022-09-14T05:38:05.289Z,98763.26
2022-09-14T05:43:08.129Z,98769.14
2022-09-14T05:48:10.521Z,98765.33
2022-09-14T05:53:12.985Z,98760.14
2022-09-14T05:58:15.385Z,98760.15
2022-09-14T06:03:17.822Z,98755.65
2022-09-14T06:08:20.363Z,98762.80
2022-09-14T06:13:24.776Z,98774.42
2022-09-14T06:18:27.367Z,98774.54
2022-09-14T06:23:30.826Z,98777.69
2022-09-14T06:28:34.455Z,98779.17
2022-09-14T06:33:37.321Z,98788.42
2022-09-14T06:38:40.307Z,98794.93
2022-09-14T06:43:43.082Z,98802.54
2022-09-14T06:48:48.687Z,98810.40
2022-09-14T06:53:51.541Z,98809.95
2022-09-14T06:58:54.379Z,98807.29
2022-09-14T07:03:57.239Z,98816.65
2022-09-14T07:09:03.320Z,98814.84
2022-09-14T07:14:06.893Z,98815.46
2022-09-14T07:19:11.358Z,98821.45
2022-09-14T07:24:14.960Z,98820.35
2022-09-14T07:29:19.810Z,98822.17
2022-09-14T07:34:23.872Z,98827.06
2022-09-14T07:39:26.364Z,98828.16
2022-09-14T07:44:28.886Z,98832.83
2022-09-14T07:49:31.421Z,98826.34
2022-09-14T07:54:34.623Z,98834.25
2022-09-14T07:59:37.738Z,98830.05
2022-09-14T08:04:42.461Z,98826.02
2022-09-14T08:09:45.226Z,98831.84
2022-09-14T08:14:47.759Z,98824.58
2022-09-14T08:19:51.482Z,98827.11
2022-09-14T08:24:53.916Z,98825.34
2022-09-14T08:29:56.366Z,98825.86
2022-09-14T08:34:58.791Z,98818.35
2022-09-14T08:40:01.566Z,98824.04
2022-09-14T08:45:09.507Z,98831.59
2022-09-14T08:50:21.928Z,98829.73
2022-09-14T08:55:33.466Z,98840.58
2022-09-14T09:00:42.408Z,98834.30
2022-09-14T09:05:51.766Z,98827.14
2022-09-14T09:10:54.944Z,98828.61
2022-09-14T09:16:01.143Z,98827.90
2022-09-14T09:21:09.605Z,98827.67
2022-09-14T09:26:16.755Z,98823.69
2022-09-14T09:31:22.775Z,98827.64
2022-09-14T09:36:26.029Z,98823.74
2022-09-14T09:41:31.378Z,98820.05
2022-09-14T09:46:34.948Z,98807.25
2022-09-14T09:51:37.571Z,98808.31
2022-09-14T09:56:43.022Z,98811.20
2022-09-14T10:01:45.601Z,98813.31
2022-09-14T10:06:50.054Z,98811.98
2022-09-14T10:11:55.379Z,98812.65
2022-09-14T10:17:15.799Z,98820.76
2022-09-14T10:22:27.000Z,98827.30
2022-09-14T10:27:37.586Z,98828.27
2022-09-14T10:32:43.424Z,98827.04
2022-09-14T10:37:46.138Z,98832.09
2022-09-14T10:42:58.071Z,98832.64
2022-09-14T10:48:03.517Z,98828.60
2022-09-14T10:53:13.988Z,98821.14
2022-09-14T10:58:21.300Z,98821.96
2022-09-14T11:03:27.481Z,98824.98
2022-09-14T11:08:34.934Z,98825.63
2022-09-14T11:13:37.324Z,98829.02
2022-09-14T11:18:42.659Z,98838.00
2022-09-14T11:23:47.037Z,98826.75
2022-09-14T11:28:57.727Z,98830.73
2022-09-14T11:34:00.219Z,98821.67
2022-09-14T11:39:07.524Z,98814.52
2022-09-14T11:44:10.938Z,98817.36
2022-09-14T11:49:18.698Z,98822.60
2022-09-14T11:54:21.958Z,98824.31
2022-09-14T11:59:27.300Z,98826.82
2022-09-14T12:04:29.708Z,98823.84
2022-09-14T12:09:38.948Z,98833.39
2022-09-14T12:14:44.435Z,98826.84
2022-09-14T12:19:48.696Z,98828.98
2022-09-14T12:24:54.025Z,98834.96
2022-09-14T12:29:56.455Z,98830.13
2022-09-14T12:35:18.783Z,98824.88
2022-09-14T12:40:21.185Z,98823.19
2022-09-14T12:45:26.684Z,98823.04
2022-09-14T12:50:33.113Z,98820.09
2022-09-14T12:55:37.236Z,98818.40
2022-09-14T13:00:42.599Z,98818.50
2022-09-14T13:05:45.402Z,98816.06
2022-09-14T13:10:49.483Z,98814.95
2022-09-14T13:15:53.803Z,98820.00
2022-09-14T13:20:58.867Z,98820.73
2022-09-14T13:26:08.038Z,98824.73
2022-09-14T13:31:13.089Z,98827.69
2022-09-14T13:36:17.675Z,98818.42
2022-09-14T13:41:22.861Z,98803.05
2022-09-14T13:46:27.015Z,98807.27
2022-09-14T13:51:29.745Z,98806.59
2022-09-14T13:56:34.096Z,98803.48
2022-09-14T14:01:40.797Z,98797.01
2022-09-14T14:06:43.254Z,98800.21
2022-09-14T14:11:51.883Z,98798.40
2022-09-14T14:16:57.310Z,98791.72
2022-09-14T14:22:02.706Z,98784.27
2022-09-14T14:27:05.302Z,98780.27
2022-09-14T14:32:08.599Z,98790.19
2022-09-14T14:37:11.428Z,98788.79
2022-09-14T14:42:15.438Z,98787.50
2022-09-14T14:47:17.823Z,98787.33
2022-09-14T14:52:20.310Z,98782.86
2022-09-14T14:57:22.695Z,98770.15
2022-09-14T15:02:26.958Z,98768.90
2022-09-14T15:07:29.662Z,98767.76
2022-09-14T15:12:32.238Z,98757.14
2022-09-14T15:17:34.644Z,98761.96
2022-09-14T15:22:37.425Z,98767.77
2022-09-14T15:27:40.353Z,98762.69
2022-09-14T15:32:42.817Z,98754.36
2022-09-14T15:37:46.664Z,98762.66
2022-09-14T15:42:49.177Z,98763.55
2022-09-14T15:47:51.557Z,98756.08
2022-09-14T15:52:59.175Z,98753.92
2022-09-14T15:58:04.321Z,98751.85
2022-09-14T16:03:06.737Z,98756.44
2022-09-14T16:08:09.327Z,98757.55
2022-09-14T16:13:11.903Z,98747.80
2022-09-14T16:18:14.389Z,98736.23
2022-09-14T16:23:16.799Z,98732.04
2022-09-14T16:28:19.235Z,98720.43
2022-09-14T16:33:21.633Z,98720.22
2022-09-14T16:38:24.841Z,98726.50
2022-09-14T16:43:29.997Z,98726.30
2022-09-14T16:48:34.467Z,98724.31
2022-09-14T16:53:38.252Z,98722.87
2022-09-14T16:58:40.922Z,98717.91
2022-09-14T17:03:44.171Z,98713.10
2022-09-14T17:08:47.721Z,98711.58
2022-09-14T17:13:50.424Z,98714.44
2022-09-14T17:18:54.209Z,98709.44
2022-09-14T17:23:57.106Z,98714.99
2022-09-14T17:29:00.069Z,98722.35
2022-09-14T17:34:03.590Z,98724.33
2022-09-14T17:39:11.643Z,98728.09
2022-09-14T17:44:15.891Z,98725.91
2022-09-14T17:49:18.557Z,98720.89
2022-09-14T17:54:21.104Z,98722.45
2022-09-14T17:59:24.397Z,98723.43
2022-09-14T18:04:26.965Z,98716.95
2022-09-14T18:09:29.427Z,98718.15
2022-09-14T18:14:33.869Z,98723.42
2022-09-14T18:19:36.324Z,98719.40
2022-09-14T18:24:38.718Z,98720.77
2022-09-14T18:29:42.128Z,98717.29
2022-09-14T18:34:44.571Z,98721.25
2022-09-14T18:39:47.062Z,98717.86
2022-09-14T18:44:53.847Z,98709.29
2022-09-14T18:49:56.374Z,98706.37
2022-09-14T18:54:58.802Z,98711.38
2022-09-14T19:00:01.363Z,98711.94
2022-09-14T19:05:03.887Z,98713.48
2022-09-14T19:10:10.991Z,98705.47
2022-09-14T19:15:14.244Z,98702.59
2022-09-14T19:20:19.197Z,98693.94
2022-09-14T19:25:21.867Z,98693.91
2022-09-14T19:30:24.289Z,98689.52
2022-09-14T19:35:27.186Z,98684.41
2022-09-14T19:40:30.015Z,98684.98
2022-09-14T19:45:34.909Z,98691.44
2022-09-14T19:50:37.335Z,98684.86
2022-09-14T19:55:39.747Z,98685.81
2022-09-14T20:00:42.186Z,98676.38
2022-09-14T20:05:44.667Z,98678.06
2022-09-14T20:10:47.123Z,98677.02
2022-09-14T20:15:49.970Z,98670.98
2022-09-14T20:20:52.427Z,98663.09
2022-09-14T20:25:54.826Z,98668.05
2022-09-14T20:30:58.926Z,98669.29
2022-09-14T20:36:04.538Z,98668.77
2022-09-14T20:41:08.146Z,98670.83
2022-09-14T20:46:12.018Z,98671.02
2022-09-14T20:51:19.861Z,98675.09
2022-09-14T20:56:24.833Z,98668.23
2022-09-14T21:01:28.731Z,98674.05
2022-09-14T21:06:31.540Z,98668.33
2022-09-14T21:11:33.996Z,98665.46
2022-09-14T21:16:37.970Z,98664.24
2022-09-14T21:21:41.132Z,98663.41
2022-09-14T21:26:44.012Z,98664.68
2022-09-14T21:31:46.703Z,98660.91
2022-09-14T21:36:50.802Z,98659.20
2022-09-14T21:41:59.439Z,98659.75
2022-09-14T21:47:02.468Z,98657.54
2022-09-14T21:52:05.142Z,98655.10
2022-09-14T21:57:07.583Z,98656.55
2022-09-14T22:02:10.127Z,98644.63
2022-09-14T22:07:12.611Z,98642.60
2022-09-14T22:12:15.935Z,98642.04
2022-09-14T22:17:18.392Z,98631.14
2022-09-14T22:28:44.890Z,98629.96
2022-09-14T22:33:47.768Z,98624.84
2022-09-14T22:38:50.191Z,98624.17
2022-09-14T22:43:53.207Z,98616.55
2022-09-14T22:48:55.958Z,98613.67
2022-09-14T22:53:58.478Z,98608.84
2022-09-14T22:59:01.736Z,98604.85
2022-09-14T23:04:05.523Z,98605.75
2022-09-14T23:09:08.904Z,98604.58
2022-09-14T23:14:14.333Z,98597.86
2022-09-14T23:19:18.734Z,98596.38
2022-09-14T23:24:21.188Z,98587.27
2022-09-14T23:29:23.648Z,98595.95
2022-09-14T23:34:26.114Z,98598.95
2022-09-14T23:39:28.980Z,98594.83
2022-09-14T23:44:31.564Z,98584.85
2022-09-14T23:49:34.017Z,98585.84
2022-09-14T23:54:36.403Z,98578.98
2022-09-14T23:59:38.829Z,98569.55
